AVV weather

Avalon Airport
Melbourne, Victoria, Australia

Public forecast

Using degrees Celsius for public forecast. Weather courtesy of forecast.io.

METAR (pilot weather report)

Retrieved 2018/12/10 01:30 UTC (0 seconds ago):

YMAV 100130Z AUTO 16013KT 9999 // SCT030 20/11 Q1019 RF00.0/000.0

TAF (pilot weather forecast)

Forecast is more than 12 hours old.

Retrieved 2018/12/09 00:33 UTC (1 day ago):

TAF TAF YMAV 092305Z 1000/1024 20008KT 9999 FEW015 BKN025 BECMG 1000/1001 17015KT CAVOK FM100900 18006KT 9999 SCT015 BECMG 1012/1014 16005KT 9999 FEW010 BKN015 FM102000 12010KT 9999 FEW015 BKN020 FM102300 12010KT 9999 SCT020